sensor_id;sensor_type;location;lat;lon;timestamp;pressure;altitude;pressure_sealevel;temperature;humidity
10135;BME280;5107;48.850;8.924;2023-02-15T00:01:10;98045.53;;;1.12;93.05
10135;BME280;5107;48.850;8.924;2023-02-15T00:03:38;98040.34;;;1.12;93.18
10135;BME280;5107;48.850;8.924;2023-02-15T00:06:06;98042.38;;;1.23;93.12
10135;BME280;5107;48.850;8.924;2023-02-15T00:08:33;98042.38;;;1.23;92.89
10135;BME280;5107;48.850;8.924;2023-02-15T00:11:05;98037.44;;;1.19;92.65
10135;BME280;5107;48.850;8.924;2023-02-15T00:13:33;98040.94;;;1.18;93.09
10135;BME280;5107;48.850;8.924;2023-02-15T00:16:02;98034.47;;;1.09;93.14
10135;BME280;5107;48.850;8.924;2023-02-15T00:18:29;98036.47;;;1.04;93.23
10135;BME280;5107;48.850;8.924;2023-02-15T00:20:57;98031.13;;;1.07;93.54
10135;BME280;5107;48.850;8.924;2023-02-15T00:23:26;98034.97;;;1.00;93.96
10135;BME280;5107;48.850;8.924;2023-02-15T00:26:04;98035.09;;;0.97;94.50
10135;BME280;5107;48.850;8.924;2023-02-15T00:28:31;98032.72;;;0.92;94.74
10135;BME280;5107;48.850;8.924;2023-02-15T00:31:04;98037.19;;;0.90;94.66
10135;BME280;5107;48.850;8.924;2023-02-15T00:33:34;98037.91;;;0.92;94.82
10135;BME280;5107;48.850;8.924;2023-02-15T00:36:03;98030.13;;;1.09;94.80
10135;BME280;5107;48.850;8.924;2023-02-15T00:38:33;98031.34;;;1.02;94.55
10135;BME280;5107;48.850;8.924;2023-02-15T00:41:02;98030.63;;;1.00;93.95
10135;BME280;5107;48.850;8.924;2023-02-15T00:43:31;98031.81;;;0.93;93.73
10135;BME280;5107;48.850;8.924;2023-02-15T00:45:58;98037.31;;;0.87;93.33
10135;BME280;5107;48.850;8.924;2023-02-15T00:48:26;98029.53;;;0.87;92.94
10135;BME280;5107;48.850;8.924;2023-02-15T00:50:56;98034.06;;;0.84;92.28
10135;BME280;5107;48.850;8.924;2023-02-15T00:53:24;98036.94;;;0.77;92.08
10135;BME280;5107;48.850;8.924;2023-02-15T00:55:53;98032.00;;;0.73;92.15
10135;BME280;5107;48.850;8.924;2023-02-15T00:58:22;98030.47;;;0.69;92.54
10135;BME280;5107;48.850;8.924;2023-02-15T01:00:49;98029.63;;;0.68;92.93
10135;BME280;5107;48.850;8.924;2023-02-15T01:03:17;98032.22;;;0.68;92.83
10135;BME280;5107;48.850;8.924;2023-02-15T01:05:46;98024.81;;;0.61;92.98
10135;BME280;5107;48.850;8.924;2023-02-15T01:08:13;98023.91;;;0.62;93.02
10135;BME280;5107;48.850;8.924;2023-02-15T01:10:40;98025.19;;;0.53;93.72
10135;BME280;5107;48.850;8.924;2023-02-15T01:13:09;98027.09;;;0.32;93.11
10135;BME280;5107;48.850;8.924;2023-02-15T01:15:36;98036.59;;;0.32;93.31
10135;BME280;5107;48.850;8.924;2023-02-15T01:18:04;98033.13;;;0.33;93.56
10135;BME280;5107;48.850;8.924;2023-02-15T01:20:35;98033.84;;;0.35;93.88
10135;BME280;5107;48.850;8.924;2023-02-15T01:23:05;98023.75;;;0.30;93.65
10135;BME280;5107;48.850;8.924;2023-02-15T01:25:34;98026.72;;;0.40;93.55
10135;BME280;5107;48.850;8.924;2023-02-15T01:28:02;98029.72;;;0.50;92.23
10135;BME280;5107;48.850;8.924;2023-02-15T01:30:31;98029.22;;;0.59;90.79
10135;BME280;5107;48.850;8.924;2023-02-15T01:32:58;98024.06;;;0.42;90.82
10135;BME280;5107;48.850;8.924;2023-02-15T01:35:26;98024.97;;;0.41;90.76
10135;BME280;5107;48.850;8.924;2023-02-15T01:37:54;98026.63;;;0.24;90.26
10135;BME280;5107;48.850;8.924;2023-02-15T01:40:22;98019.56;;;0.09;90.82
10135;BME280;5107;48.850;8.924;2023-02-15T01:42:51;98021.78;;;-0.01;90.95
10135;BME280;5107;48.850;8.924;2023-02-15T01:45:24;98029.38;;;0.03;91.76
10135;BME280;5107;48.850;8.924;2023-02-15T01:47:58;98021.50;;;0.06;92.24
10135;BME280;5107;48.850;8.924;2023-02-15T01:50:32;98027.63;;;0.03;93.48
10135;BME280;5107;48.850;8.924;2023-02-15T01:53:06;98033.41;;;-0.09;94.73
10135;BME280;5107;48.850;8.924;2023-02-15T01:55:38;98034.66;;;-0.18;95.87
10135;BME280;5107;48.850;8.924;2023-02-15T01:58:07;98028.91;;;-0.24;97.10
10135;BME280;5107;48.850;8.924;2023-02-15T02:00:35;98026.25;;;-0.23;96.95
10135;BME280;5107;48.850;8.924;2023-02-15T02:03:04;98023.25;;;-0.14;96.48
10135;BME280;5107;48.850;8.924;2023-02-15T02:05:32;98017.25;;;-0.14;96.20
10135;BME280;5107;48.850;8.924;2023-02-15T02:08:01;98013.69;;;-0.12;95.96
10135;BME280;5107;48.850;8.924;2023-02-15T02:10:30;98010.78;;;-0.06;94.65
10135;BME280;5107;48.850;8.924;2023-02-15T02:13:02;98014.72;;;-0.16;94.47
10135;BME280;5107;48.850;8.924;2023-02-15T02:15:39;98015.84;;;-0.21;96.09
10135;BME280;5107;48.850;8.924;2023-02-15T02:18:22;98014.09;;;-0.21;96.93
10135;BME280;5107;48.850;8.924;2023-02-15T02:21:13;98014.72;;;-0.16;96.60
10135;BME280;5107;48.850;8.924;2023-02-15T02:24:01;98009.22;;;-0.27;96.77
10135;BME280;5107;48.850;8.924;2023-02-15T02:27:19;98012.44;;;-0.41;97.99
10135;BME280;5107;48.850;8.924;2023-02-15T02:30:43;97997.69;;;-0.39;98.29
10135;BME280;5107;48.850;8.924;2023-02-15T02:33:36;98002.56;;;-0.32;97.86
10135;BME280;5107;48.850;8.924;2023-02-15T02:36:15;98003.34;;;-0.30;97.47
10135;BME280;5107;48.850;8.924;2023-02-15T02:39:00;98001.78;;;-0.16;97.17
10135;BME280;5107;48.850;8.924;2023-02-15T02:41:37;97996.00;;;-0.40;96.89
10135;BME280;5107;48.850;8.924;2023-02-15T02:44:12;97996.16;;;-0.43;97.23
10135;BME280;5107;48.850;8.924;2023-02-15T02:46:49;97994.06;;;-0.34;96.38
10135;BME280;5107;48.850;8.924;2023-02-15T02:49:32;97990.78;;;-0.38;96.98
10135;BME280;5107;48.850;8.924;2023-02-15T02:52:00;97996.06;;;-0.41;97.41
10135;BME280;5107;48.850;8.924;2023-02-15T02:54:28;97990.41;;;-0.49;97.84
10135;BME280;5107;48.850;8.924;2023-02-15T02:56:57;97982.59;;;-0.66;98.32
10135;BME280;5107;48.850;8.924;2023-02-15T02:59:30;97981.41;;;-0.78;99.35
10135;BME280;5107;48.850;8.924;2023-02-15T03:02:03;97983.16;;;-0.79;99.80
10135;BME280;5107;48.850;8.924;2023-02-15T03:04:36;97978.78;;;-0.77;99.50
10135;BME280;5107;48.850;8.924;2023-02-15T03:07:07;97979.66;;;-0.78;99.11
10135;BME280;5107;48.850;8.924;2023-02-15T03:09:39;97977.69;;;-0.91;98.67
10135;BME280;5107;48.850;8.924;2023-02-15T03:12:09;97979.91;;;-1.02;100.00
10135;BME280;5107;48.850;8.924;2023-02-15T03:14:44;97977.91;;;-1.16;99.98
10135;BME280;5107;48.850;8.924;2023-02-15T03:17:13;97975.81;;;-1.27;100.00
10135;BME280;5107;48.850;8.924;2023-02-15T03:19:44;97981.88;;;-1.28;100.00
10135;BME280;5107;48.850;8.924;2023-02-15T03:22:16;97974.31;;;-1.32;100.00
10135;BME280;5107;48.850;8.924;2023-02-15T03:24:51;97979.16;;;-1.45;100.00
10135;BME280;5107;48.850;8.924;2023-02-15T03:27:24;97973.88;;;-1.62;100.00
10135;BME280;5107;48.850;8.924;2023-02-15T03:29:56;97977.25;;;-1.60;100.00
10135;BME280;5107;48.850;8.924;2023-02-15T03:32:26;97964.47;;;-1.43;100.00
10135;BME280;5107;48.850;8.924;2023-02-15T03:34:56;97963.81;;;-1.48;100.00
10135;BME280;5107;48.850;8.924;2023-02-15T03:37:29;97969.22;;;-1.54;100.00
10135;BME280;5107;48.850;8.924;2023-02-15T03:40:02;97972.00;;;-1.59;100.00
10135;BME280;5107;48.850;8.924;2023-02-15T03:43:01;97975.28;;;-1.55;100.00
10135;BME280;5107;48.850;8.924;2023-02-15T03:45:31;97981.03;;;-1.69;100.00
10135;BME280;5107;48.850;8.924;2023-02-15T03:48:01;97983.94;;;-1.76;100.00
10135;BME280;5107;48.850;8.924;2023-02-15T03:50:33;97977.41;;;-1.85;100.00
10135;BME280;5107;48.850;8.924;2023-02-15T03:53:22;97984.16;;;-1.82;100.00
10135;BME280;5107;48.850;8.924;2023-02-15T03:55:54;97976.84;;;-1.71;100.00
10135;BME280;5107;48.850;8.924;2023-02-15T03:58:21;97979.22;;;-1.67;100.00
10135;BME280;5107;48.850;8.924;2023-02-15T04:01:22;97969.41;;;-1.59;100.00
10135;BME280;5107;48.850;8.924;2023-02-15T04:04:15;97977.34;;;-1.63;100.00
10135;BME280;5107;48.850;8.924;2023-02-15T04:06:46;97968.19;;;-1.50;100.00
10135;BME280;5107;48.850;8.924;2023-02-15T04:09:14;97972.50;;;-1.50;100.00
10135;BME280;5107;48.850;8.924;2023-02-15T04:11:58;97962.28;;;-1.52;100.00
10135;BME280;5107;48.850;8.924;2023-02-15T04:14:25;97965.81;;;-1.55;99.89
10135;BME280;5107;48.850;8.924;2023-02-15T04:17:07;97961.63;;;-1.57;99.19
10135;BME280;5107;48.850;8.924;2023-02-15T04:19:34;97961.75;;;-1.60;98.63
10135;BME280;5107;48.850;8.924;2023-02-15T04:22:20;97963.44;;;-1.59;97.85
10135;BME280;5107;48.850;8.924;2023-02-15T04:25:05;97955.81;;;-1.62;97.57
10135;BME280;5107;48.850;8.924;2023-02-15T04:27:40;97960.31;;;-1.67;98.43
10135;BME280;5107;48.850;8.924;2023-02-15T04:30:09;97956.78;;;-1.65;99.66
10135;BME280;5107;48.850;8.924;2023-02-15T04:32:37;97954.41;;;-1.69;99.63
10135;BME280;5107;48.850;8.924;2023-02-15T04:35:06;97955.16;;;-1.67;99.85
10135;BME280;5107;48.850;8.924;2023-02-15T04:37:34;97952.41;;;-1.63;99.80
10135;BME280;5107;48.850;8.924;2023-02-15T04:40:02;97960.88;;;-1.81;99.00
10135;BME280;5107;48.850;8.924;2023-02-15T04:42:29;97953.34;;;-1.85;99.51
10135;BME280;5107;48.850;8.924;2023-02-15T04:44:56;97963.72;;;-1.87;100.00
10135;BME280;5107;48.850;8.924;2023-02-15T04:47:24;97953.41;;;-1.87;100.00
10135;BME280;5107;48.850;8.924;2023-02-15T04:49:51;97960.03;;;-2.02;99.94
10135;BME280;5107;48.850;8.924;2023-02-15T04:52:18;97955.78;;;-2.03;100.00
10135;BME280;5107;48.850;8.924;2023-02-15T04:54:46;97957.50;;;-2.03;100.00
10135;BME280;5107;48.850;8.924;2023-02-15T04:57:13;97951.00;;;-2.12;100.00
10135;BME280;5107;48.850;8.924;2023-02-15T04:59:40;97952.41;;;-2.05;100.00
10135;BME280;5107;48.850;8.924;2023-02-15T05:02:07;97950.84;;;-2.09;100.00
10135;BME280;5107;48.850;8.924;2023-02-15T05:04:35;97947.50;;;-2.11;100.00
10135;BME280;5107;48.850;8.924;2023-02-15T05:07:02;97943.50;;;-2.18;100.00
10135;BME280;5107;48.850;8.924;2023-02-15T05:09:29;97941.16;;;-2.24;100.00
10135;BME280;5107;48.850;8.924;2023-02-15T05:11:57;97953.81;;;-2.40;99.35
10135;BME280;5107;48.850;8.924;2023-02-15T05:14:24;97940.88;;;-2.38;100.00
10135;BME280;5107;48.850;8.924;2023-02-15T05:16:51;97938.72;;;-2.27;100.00
10135;BME280;5107;48.850;8.924;2023-02-15T05:19:21;97940.00;;;-2.17;100.00
10135;BME280;5107;48.850;8.924;2023-02-15T05:21:50;97941.75;;;-2.17;99.98
10135;BME280;5107;48.850;8.924;2023-02-15T05:24:17;97944.41;;;-2.19;99.56
10135;BME280;5107;48.850;8.924;2023-02-15T05:27:03;97945.56;;;-2.26;99.22
10135;BME280;5107;48.850;8.924;2023-02-15T05:29:47;97944.63;;;-2.25;100.00
10135;BME280;5107;48.850;8.924;2023-02-15T05:32:14;97942.41;;;-2.34;99.83
10135;BME280;5107;48.850;8.924;2023-02-15T05:34:42;97945.19;;;-2.39;99.26
10135;BME280;5107;48.850;8.924;2023-02-15T05:37:09;97947.56;;;-2.34;99.26
10135;BME280;5107;48.850;8.924;2023-02-15T05:39:36;97944.94;;;-2.33;100.00
10135;BME280;5107;48.850;8.924;2023-02-15T05:42:04;97939.78;;;-2.33;99.93
10135;BME280;5107;48.850;8.924;2023-02-15T05:44:31;97942.19;;;-2.28;100.00
10135;BME280;5107;48.850;8.924;2023-02-15T05:46:58;97936.34;;;-2.33;99.76
10135;BME280;5107;48.850;8.924;2023-02-15T05:49:25;97947.09;;;-2.44;99.85
10135;BME280;5107;48.850;8.924;2023-02-15T05:51:52;97947.63;;;-2.57;100.00
10135;BME280;5107;48.850;8.924;2023-02-15T05:54:19;97945.03;;;-2.57;100.00
10135;BME280;5107;48.850;8.924;2023-02-15T05:56:46;97950.66;;;-2.70;100.00
10135;BME280;5107;48.850;8.924;2023-02-15T05:59:15;97954.97;;;-2.70;100.00
10135;BME280;5107;48.850;8.924;2023-02-15T06:01:42;97953.25;;;-2.70;100.00
10135;BME280;5107;48.850;8.924;2023-02-15T06:04:09;97954.75;;;-2.64;100.00
10135;BME280;5107;48.850;8.924;2023-02-15T06:06:36;97959.53;;;-2.55;100.00
10135;BME280;5107;48.850;8.924;2023-02-15T06:09:03;97957.38;;;-2.65;100.00
10135;BME280;5107;48.850;8.924;2023-02-15T06:11:30;97956.81;;;-2.74;100.00
10135;BME280;5107;48.850;8.924;2023-02-15T06:13:57;97963.00;;;-2.78;100.00
10135;BME280;5107;48.850;8.924;2023-02-15T06:16:25;97966.34;;;-2.99;100.00
10135;BME280;5107;48.850;8.924;2023-02-15T06:18:52;97960.97;;;-2.93;100.00
10135;BME280;5107;48.850;8.924;2023-02-15T06:21:19;97959.41;;;-2.97;100.00
10135;BME280;5107;48.850;8.924;2023-02-15T06:23:46;97962.53;;;-2.89;100.00
10135;BME280;5107;48.850;8.924;2023-02-15T06:26:13;97953.09;;;-2.88;100.00
10135;BME280;5107;48.850;8.924;2023-02-15T06:28:40;97968.75;;;-2.94;100.00
10135;BME280;5107;48.850;8.924;2023-02-15T06:31:07;97965.28;;;-2.93;100.00
10135;BME280;5107;48.850;8.924;2023-02-15T06:33:36;97963.34;;;-2.87;100.00
10135;BME280;5107;48.850;8.924;2023-02-15T06:36:04;97966.78;;;-2.88;100.00
10135;BME280;5107;48.850;8.924;2023-02-15T06:38:31;97971.94;;;-2.88;100.00
10135;BME280;5107;48.850;8.924;2023-02-15T06:40:58;97967.59;;;-2.86;100.00
10135;BME280;5107;48.850;8.924;2023-02-15T06:43:25;97967.50;;;-2.84;100.00
10135;BME280;5107;48.850;8.924;2023-02-15T06:45:52;97969.69;;;-2.74;100.00
10135;BME280;5107;48.850;8.924;2023-02-15T06:48:19;97964.81;;;-2.58;100.00
10135;BME280;5107;48.850;8.924;2023-02-15T06:50:47;97977.19;;;-2.44;100.00
10135;BME280;5107;48.850;8.924;2023-02-15T06:53:14;97981.50;;;-2.01;100.00
10135;BME280;5107;48.850;8.924;2023-02-15T06:55:41;97980.41;;;-1.54;100.00
10135;BME280;5107;48.850;8.924;2023-02-15T06:58:08;97986.44;;;-0.94;100.00
10135;BME280;5107;48.850;8.924;2023-02-15T07:00:35;97983.25;;;-0.43;100.00
10135;BME280;5107;48.850;8.924;2023-02-15T07:03:03;97991.09;;;-0.08;100.00
10135;BME280;5107;48.850;8.924;2023-02-15T07:05:33;97986.94;;;0.07;98.82
10135;BME280;5107;48.850;8.924;2023-02-15T07:08:02;97989.03;;;0.34;94.03
10135;BME280;5107;48.850;8.924;2023-02-15T07:10:29;97983.72;;;0.55;90.92
10135;BME280;5107;48.850;8.924;2023-02-15T07:12:56;97987.66;;;0.62;87.25
10135;BME280;5107;48.850;8.924;2023-02-15T07:15:22;97990.75;;;0.86;88.34
10135;BME280;5107;48.850;8.924;2023-02-15T07:17:50;97988.22;;;1.34;91.96
10135;BME280;5107;48.850;8.924;2023-02-15T07:20:19;97996.94;;;1.33;83.83
10135;BME280;5107;48.850;8.924;2023-02-15T07:22:47;97992.91;;;1.43;79.63
10135;BME280;5107;48.850;8.924;2023-02-15T07:25:16;97996.50;;;1.25;77.48
10135;BME280;5107;48.850;8.924;2023-02-15T07:27:44;97991.78;;;1.16;76.72
10135;BME280;5107;48.850;8.924;2023-02-15T07:30:14;97996.97;;;0.83;75.40
10135;BME280;5107;48.850;8.924;2023-02-15T07:32:42;97995.72;;;0.21;76.75
10135;BME280;5107;48.850;8.924;2023-02-15T07:35:24;97997.13;;;-0.26;79.71
10135;BME280;5107;48.850;8.924;2023-02-15T07:37:51;97990.78;;;-0.57;81.26
10135;BME280;5107;48.850;8.924;2023-02-15T07:40:20;98004.78;;;-0.81;81.99
10135;BME280;5107;48.850;8.924;2023-02-15T07:42:50;98006.38;;;-0.97;82.98
10135;BME280;5107;48.850;8.924;2023-02-15T07:45:21;98010.00;;;-0.83;89.40
10135;BME280;5107;48.850;8.924;2023-02-15T07:47:48;98003.66;;;-1.15;88.53
10135;BME280;5107;48.850;8.924;2023-02-15T07:50:16;97999.38;;;-1.34;88.63
10135;BME280;5107;48.850;8.924;2023-02-15T07:52:43;97998.63;;;-0.97;95.99
10135;BME280;5107;48.850;8.924;2023-02-15T07:55:10;98003.81;;;-1.38;91.41
10135;BME280;5107;48.850;8.924;2023-02-15T07:57:43;98001.09;;;-1.15;95.87
10135;BME280;5107;48.850;8.924;2023-02-15T08:00:13;97995.78;;;-0.16;99.93
10135;BME280;5107;48.850;8.924;2023-02-15T08:02:40;98004.97;;;-0.47;91.81
10135;BME280;5107;48.850;8.924;2023-02-15T08:05:07;97995.34;;;-0.82;89.36
10135;BME280;5107;48.850;8.924;2023-02-15T08:07:34;98008.03;;;-0.76;89.14
10135;BME280;5107;48.850;8.924;2023-02-15T08:10:01;98001.78;;;-0.72;88.69
10135;BME280;5107;48.850;8.924;2023-02-15T08:12:29;98000.63;;;-0.27;88.76
10135;BME280;5107;48.850;8.924;2023-02-15T08:14:57;97999.53;;;0.31;88.78
10135;BME280;5107;48.850;8.924;2023-02-15T08:17:24;97994.13;;;0.70;84.03
10135;BME280;5107;48.850;8.924;2023-02-15T08:19:51;97994.16;;;1.03;83.30
10135;BME280;5107;48.850;8.924;2023-02-15T08:22:18;97990.59;;;1.39;82.05
10135;BME280;5107;48.850;8.924;2023-02-15T08:24:46;97988.84;;;1.86;77.89
10135;BME280;5107;48.850;8.924;2023-02-15T08:27:13;97994.72;;;2.36;77.58
10135;BME280;5107;48.850;8.924;2023-02-15T08:29:40;97990.47;;;2.64;74.28
10135;BME280;5107;48.850;8.924;2023-02-15T08:32:11;97978.19;;;2.52;73.04
10135;BME280;5107;48.850;8.924;2023-02-15T08:34:41;97979.63;;;2.72;72.46
10135;BME280;5107;48.850;8.924;2023-02-15T08:37:08;97973.13;;;2.79;72.88
10135;BME280;5107;48.850;8.924;2023-02-15T08:39:35;97979.75;;;3.27;72.97
10135;BME280;5107;48.850;8.924;2023-02-15T08:42:03;97976.34;;;3.41;70.77
10135;BME280;5107;48.850;8.924;2023-02-15T08:44:30;97981.06;;;3.49;70.11
10135;BME280;5107;48.850;8.924;2023-02-15T08:46:57;97973.38;;;3.33;69.78
10135;BME280;5107;48.850;8.924;2023-02-15T08:49:31;97979.47;;;3.03;69.83
10135;BME280;5107;48.850;8.924;2023-02-15T08:51:58;97977.25;;;2.53;71.28
10135;BME280;5107;48.850;8.924;2023-02-15T08:54:25;97976.69;;;2.48;75.38
10135;BME280;5107;48.850;8.924;2023-02-15T08:56:52;97976.88;;;2.89;76.61
10135;BME280;5107;48.850;8.924;2023-02-15T08:59:21;97982.75;;;3.07;73.65
10135;BME280;5107;48.850;8.924;2023-02-15T09:01:50;97977.53;;;3.21;73.01
10135;BME280;5107;48.850;8.924;2023-02-15T09:04:19;97976.25;;;3.42;72.60
10135;BME280;5107;48.850;8.924;2023-02-15T09:06:49;97981.06;;;3.49;73.18
10135;BME280;5107;48.850;8.924;2023-02-15T09:09:17;97977.81;;;3.45;72.30
10135;BME280;5107;48.850;8.924;2023-02-15T09:11:47;97974.09;;;3.49;72.88
10135;BME280;5107;48.850;8.924;2023-02-15T09:14:17;97972.25;;;3.23;74.08
10135;BME280;5107;48.850;8.924;2023-02-15T09:16:47;97969.91;;;3.18;73.76
10135;BME280;5107;48.850;8.924;2023-02-15T09:19:17;97962.22;;;3.02;73.59
10135;BME280;5107;48.850;8.924;2023-02-15T09:21:44;97963.22;;;2.86;74.11
10135;BME280;5107;48.850;8.924;2023-02-15T09:24:15;97964.44;;;2.94;74.52
10135;BME280;5107;48.850;8.924;2023-02-15T09:26:45;97960.44;;;3.03;75.37
10135;BME280;5107;48.850;8.924;2023-02-15T09:29:14;97955.44;;;3.42;83.69
10135;BME280;5107;48.850;8.924;2023-02-15T09:31:44;97961.16;;;3.62;77.05
10135;BME280;5107;48.850;8.924;2023-02-15T09:34:12;97960.44;;;4.01;76.15
10135;BME280;5107;48.850;8.924;2023-02-15T09:36:41;97954.56;;;3.97;73.09
10135;BME280;5107;48.850;8.924;2023-02-15T09:39:11;97953.50;;;4.14;72.88
10135;BME280;5107;48.850;8.924;2023-02-15T09:42:20;97951.31;;;4.20;72.79
10135;BME280;5107;48.850;8.924;2023-02-15T09:45:03;97945.50;;;4.17;72.61
10135;BME280;5107;48.850;8.924;2023-02-15T09:48:29;97942.03;;;4.56;70.25
10135;BME280;5107;48.850;8.924;2023-02-15T09:51:23;97941.81;;;4.19;72.25
10135;BME280;5107;48.850;8.924;2023-02-15T09:54:09;97943.03;;;4.41;74.11
10135;BME280;5107;48.850;8.924;2023-02-15T09:56:50;97941.03;;;4.32;72.51
10135;BME280;5107;48.850;8.924;2023-02-15T09:59:27;97932.34;;;4.71;71.24
10135;BME280;5107;48.850;8.924;2023-02-15T10:02:07;97928.25;;;5.30;69.81
10135;BME280;5107;48.850;8.924;2023-02-15T10:04:51;97930.56;;;5.22;69.00
10135;BME280;5107;48.850;8.924;2023-02-15T10:07:37;97930.59;;;4.96;70.82
10135;BME280;5107;48.850;8.924;2023-02-15T10:10:19;97930.50;;;5.60;70.50
10135;BME280;5107;48.850;8.924;2023-02-15T10:13:08;97929.88;;;5.56;70.17
10135;BME280;5107;48.850;8.924;2023-02-15T10:15:52;97936.03;;;5.68;70.24
10135;BME280;5107;48.850;8.924;2023-02-15T10:18:48;97922.63;;;6.09;68.04
10135;BME280;5107;48.850;8.924;2023-02-15T10:21:29;97935.94;;;6.76;67.52
10135;BME280;5107;48.850;8.924;2023-02-15T10:24:28;97941.22;;;7.09;64.93
10135;BME280;5107;48.850;8.924;2023-02-15T10:27:07;97931.09;;;7.38;63.27
10135;BME280;5107;48.850;8.924;2023-02-15T10:29:44;97936.00;;;7.32;63.43
10135;BME280;5107;48.850;8.924;2023-02-15T10:32:22;97933.25;;;7.33;64.52
10135;BME280;5107;48.850;8.924;2023-02-15T10:34:52;97927.78;;;7.58;63.84
10135;BME280;5107;48.850;8.924;2023-02-15T10:38:04;97923.38;;;7.59;64.24
10135;BME280;5107;48.850;8.924;2023-02-15T10:40:42;97924.78;;;7.63;63.59
10135;BME280;5107;48.850;8.924;2023-02-15T10:43:29;97922.09;;;7.96;63.21
10135;BME280;5107;48.850;8.924;2023-02-15T10:46:12;97923.81;;;8.18;62.67
10135;BME280;5107;48.850;8.924;2023-02-15T10:51:53;97917.31;;;8.02;63.04
10135;BME280;5107;48.850;8.924;2023-02-15T10:54:32;97913.47;;;8.17;65.15
10135;BME280;5107;48.850;8.924;2023-02-15T10:57:09;97912.00;;;8.35;64.11
10135;BME280;5107;48.850;8.924;2023-02-15T10:59:58;97908.66;;;8.22;64.39
10135;BME280;5107;48.850;8.924;2023-02-15T11:05:41;97917.63;;;7.54;67.31
10135;BME280;5107;48.850;8.924;2023-02-15T11:08:15;97905.25;;;7.56;67.96
10135;BME280;5107;48.850;8.924;2023-02-15T11:10:47;97907.06;;;7.55;68.57
10135;BME280;5107;48.850;8.924;2023-02-15T11:13:18;97902.75;;;7.77;68.04
10135;BME280;5107;48.850;8.924;2023-02-15T11:15:51;97903.75;;;7.96;67.55
10135;BME280;5107;48.850;8.924;2023-02-15T11:18:26;97896.81;;;8.07;66.70
10135;BME280;5107;48.850;8.924;2023-02-15T11:20:59;97892.50;;;8.17;66.43
10135;BME280;5107;48.850;8.924;2023-02-15T11:23:28;97899.31;;;8.08;66.57
10135;BME280;5107;48.850;8.924;2023-02-15T11:25:58;97893.66;;;7.92;67.61
10135;BME280;5107;48.850;8.924;2023-02-15T11:28:33;97895.22;;;7.83;67.65
10135;BME280;5107;48.850;8.924;2023-02-15T11:31:12;97905.69;;;7.94;69.18
10135;BME280;5107;48.850;8.924;2023-02-15T11:33:46;97897.41;;;8.10;68.09
10135;BME280;5107;48.850;8.924;2023-02-15T11:36:19;97887.44;;;8.36;67.46
10135;BME280;5107;48.850;8.924;2023-02-15T11:38:54;97894.19;;;8.38;66.98
10135;BME280;5107;48.850;8.924;2023-02-15T11:41:28;97893.72;;;8.45;67.13
10135;BME280;5107;48.850;8.924;2023-02-15T11:43:59;97892.72;;;8.46;65.43
10135;BME280;5107;48.850;8.924;2023-02-15T11:46:32;97890.50;;;8.30;65.72
10135;BME280;5107;48.850;8.924;2023-02-15T11:49:00;97885.25;;;8.30;65.50
10135;BME280;5107;48.850;8.924;2023-02-15T11:51:29;97882.91;;;8.27;66.14
10135;BME280;5107;48.850;8.924;2023-02-15T11:53:56;97881.44;;;8.45;65.99
10135;BME280;5107;48.850;8.924;2023-02-15T11:56:25;97874.31;;;8.36;65.85
10135;BME280;5107;48.850;8.924;2023-02-15T11:58:55;97883.94;;;8.04;66.58
10135;BME280;5107;48.850;8.924;2023-02-15T12:01:29;97884.53;;;7.75;68.25
10135;BME280;5107;48.850;8.924;2023-02-15T12:04:03;97873.16;;;7.43;68.95
10135;BME280;5107;48.850;8.924;2023-02-15T12:06:35;97873.84;;;7.45;69.63
10135;BME280;5107;48.850;8.924;2023-02-15T12:09:25;97877.59;;;7.09;69.78
10135;BME280;5107;48.850;8.924;2023-02-15T12:12:20;97872.44;;;6.96;71.46
10135;BME280;5107;48.850;8.924;2023-02-15T12:14:51;97873.38;;;7.29;71.94
10135;BME280;5107;48.850;8.924;2023-02-15T12:17:21;97861.75;;;7.44;70.27
10135;BME280;5107;48.850;8.924;2023-02-15T12:19:52;97871.84;;;7.37;69.98
10135;BME280;5107;48.850;8.924;2023-02-15T12:22:23;97866.81;;;7.56;69.62
10135;BME280;5107;48.850;8.924;2023-02-15T12:24:54;97864.19;;;7.68;68.96
10135;BME280;5107;48.850;8.924;2023-02-15T12:27:24;97865.44;;;7.84;69.19
10135;BME280;5107;48.850;8.924;2023-02-15T12:29:57;97863.75;;;7.94;68.56
10135;BME280;5107;48.850;8.924;2023-02-15T12:32:27;97854.63;;;8.10;67.41
10135;BME280;5107;48.850;8.924;2023-02-15T12:35:07;97862.81;;;8.48;67.66
10135;BME280;5107;48.850;8.924;2023-02-15T12:37:36;97858.28;;;8.81;66.00
10135;BME280;5107;48.850;8.924;2023-02-15T12:40:20;97860.91;;;9.01;64.83
10135;BME280;5107;48.850;8.924;2023-02-15T12:42:48;97852.91;;;9.12;64.36
10135;BME280;5107;48.850;8.924;2023-02-15T12:45:26;97849.69;;;9.39;62.77
10135;BME280;5107;48.850;8.924;2023-02-15T12:48:14;97843.25;;;9.53;63.18
10135;BME280;5107;48.850;8.924;2023-02-15T12:50:44;97833.88;;;9.70;65.07
10135;BME280;5107;48.850;8.924;2023-02-15T12:53:15;97826.94;;;9.88;62.26
10135;BME280;5107;48.850;8.924;2023-02-15T12:55:53;97834.72;;;10.09;61.24
10135;BME280;5107;48.850;8.924;2023-02-15T12:58:24;97827.13;;;10.35;59.74
10135;BME280;5107;48.850;8.924;2023-02-15T13:01:11;97835.53;;;10.57;59.71
10135;BME280;5107;48.850;8.924;2023-02-15T13:03:56;97826.88;;;10.84;59.61
10135;BME280;5107;48.850;8.924;2023-02-15T13:06:27;97825.03;;;10.94;58.12
10135;BME280;5107;48.850;8.924;2023-02-15T13:08:57;97824.28;;;11.12;56.02
10135;BME280;5107;48.850;8.924;2023-02-15T13:11:28;97817.16;;;11.22;57.06
10135;BME280;5107;48.850;8.924;2023-02-15T13:14:02;97811.69;;;11.33;57.07
10135;BME280;5107;48.850;8.924;2023-02-15T13:16:33;97817.25;;;11.30;56.60
10135;BME280;5107;48.850;8.924;2023-02-15T13:19:06;97807.00;;;11.27;56.90
10135;BME280;5107;48.850;8.924;2023-02-15T13:21:43;97798.19;;;11.46;56.43
10135;BME280;5107;48.850;8.924;2023-02-15T13:24:19;97804.44;;;11.45;55.02
10135;BME280;5107;48.850;8.924;2023-02-15T13:26:49;97803.00;;;11.50;55.81
10135;BME280;5107;48.850;8.924;2023-02-15T13:29:22;97791.38;;;11.43;56.38
10135;BME280;5107;48.850;8.924;2023-02-15T13:31:52;97791.16;;;11.36;56.14
10135;BME280;5107;48.850;8.924;2023-02-15T13:34:25;97785.69;;;11.20;56.76
10135;BME280;5107;48.850;8.924;2023-02-15T13:37:01;97782.91;;;11.22;57.06
10135;BME280;5107;48.850;8.924;2023-02-15T13:39:37;97781.53;;;11.18;57.68
10135;BME280;5107;48.850;8.924;2023-02-15T13:42:18;97787.50;;;11.20;58.03
10135;BME280;5107;48.850;8.924;2023-02-15T13:45:19;97779.69;;;11.28;57.48
10135;BME280;5107;48.850;8.924;2023-02-15T13:47:55;97776.97;;;11.20;58.08
10135;BME280;5107;48.850;8.924;2023-02-15T13:50:43;97773.94;;;11.15;57.97